sensor_id;sensor_type;location;lat;lon;timestamp;temperature;humidity
4727;DHT22;2377;51.734;8.950;2022-10-17T00:02:11;15.40;1.00
4727;DHT22;2377;51.734;8.950;2022-10-17T00:04:38;15.40;1.00
4727;DHT22;2377;51.734;8.950;2022-10-17T00:07:05;15.50;1.00
4727;DHT22;2377;51.734;8.950;2022-10-17T00:09:32;15.50;1.00
4727;DHT22;2377;51.734;8.950;2022-10-17T00:11:59;15.50;1.00
4727;DHT22;2377;51.734;8.950;2022-10-17T00:14:27;15.40;1.00
4727;DHT22;2377;51.734;8.950;2022-10-17T00:16:54;15.50;1.00
4727;DHT22;2377;51.734;8.950;2022-10-17T00:19:22;15.50;1.00
4727;DHT22;2377;51.734;8.950;2022-10-17T00:21:49;15.50;1.00
4727;DHT22;2377;51.734;8.950;2022-10-17T00:24:16;15.50;1.00
4727;DHT22;2377;51.734;8.950;2022-10-17T00:26:43;15.50;3.50
4727;DHT22;2377;51.734;8.950;2022-10-17T00:29:10;15.50;1.00
4727;DHT22;2377;51.734;8.950;2022-10-17T00:31:37;15.50;1.00
4727;DHT22;2377;51.734;8.950;2022-10-17T00:34:04;15.50;1.00
4727;DHT22;2377;51.734;8.950;2022-10-17T00:36:33;15.50;1.00
4727;DHT22;2377;51.734;8.950;2022-10-17T00:39:00;15.50;1.00
4727;DHT22;2377;51.734;8.950;2022-10-17T00:41:29;15.60;1.00
4727;DHT22;2377;51.734;8.950;2022-10-17T00:43:59;15.50;1.00
4727;DHT22;2377;51.734;8.950;2022-10-17T00:46:29;15.50;1.00
4727;DHT22;2377;51.734;8.950;2022-10-17T00:49:02;15.50;1.00
4727;DHT22;2377;51.734;8.950;2022-10-17T00:51:37;15.50;1.00
4727;DHT22;2377;51.734;8.950;2022-10-17T00:54:08;15.50;1.00
4727;DHT22;2377;51.734;8.950;2022-10-17T00:56:37;15.50;1.00
4727;DHT22;2377;51.734;8.950;2022-10-17T00:59:05;15.40;1.00
4727;DHT22;2377;51.734;8.950;2022-10-17T01:01:34;15.40;1.00
4727;DHT22;2377;51.734;8.950;2022-10-17T01:04:02;15.50;1.30
4727;DHT22;2377;51.734;8.950;2022-10-17T01:06:29;15.50;1.00
4727;DHT22;2377;51.734;8.950;2022-10-17T01:08:58;15.50;1.00
4727;DHT22;2377;51.734;8.950;2022-10-17T01:11:32;15.50;1.00
4727;DHT22;2377;51.734;8.950;2022-10-17T01:14:08;15.50;1.00
4727;DHT22;2377;51.734;8.950;2022-10-17T01:16:48;15.50;1.00
4727;DHT22;2377;51.734;8.950;2022-10-17T01:19:42;15.50;1.00
4727;DHT22;2377;51.734;8.950;2022-10-17T01:22:27;15.50;1.00
4727;DHT22;2377;51.734;8.950;2022-10-17T01:25:20;15.50;1.00
4727;DHT22;2377;51.734;8.950;2022-10-17T01:28:15;15.50;1.00
4727;DHT22;2377;51.734;8.950;2022-10-17T01:31:04;15.50;1.00
4727;DHT22;2377;51.734;8.950;2022-10-17T01:33:47;15.50;1.00
4727;DHT22;2377;51.734;8.950;2022-10-17T01:36:35;15.50;1.00
4727;DHT22;2377;51.734;8.950;2022-10-17T01:39:14;15.50;1.00
4727;DHT22;2377;51.734;8.950;2022-10-17T01:41:53;15.50;1.00
4727;DHT22;2377;51.734;8.950;2022-10-17T01:44:30;15.50;1.00
4727;DHT22;2377;51.734;8.950;2022-10-17T01:47:06;15.50;1.00
4727;DHT22;2377;51.734;8.950;2022-10-17T01:49:38;15.50;1.00
4727;DHT22;2377;51.734;8.950;2022-10-17T01:52:11;15.50;1.00
4727;DHT22;2377;51.734;8.950;2022-10-17T01:54:43;15.50;1.00
4727;DHT22;2377;51.734;8.950;2022-10-17T01:57:17;15.50;1.00
4727;DHT22;2377;51.734;8.950;2022-10-17T01:59:50;15.50;1.00
4727;DHT22;2377;51.734;8.950;2022-10-17T02:02:22;15.50;1.00
4727;DHT22;2377;51.734;8.950;2022-10-17T02:04:51;15.50;1.00
4727;DHT22;2377;51.734;8.950;2022-10-17T02:07:21;15.50;1.00
4727;DHT22;2377;51.734;8.950;2022-10-17T02:09:48;15.40;1.00
4727;DHT22;2377;51.734;8.950;2022-10-17T02:12:27;15.40;1.00
4727;DHT22;2377;51.734;8.950;2022-10-17T02:15:17;15.40;1.00
4727;DHT22;2377;51.734;8.950;2022-10-17T02:18:01;15.40;1.00
4727;DHT22;2377;51.734;8.950;2022-10-17T02:20:48;15.30;1.00
4727;DHT22;2377;51.734;8.950;2022-10-17T02:23:22;15.30;1.00
4727;DHT22;2377;51.734;8.950;2022-10-17T02:26:01;15.30;1.00
4727;DHT22;2377;51.734;8.950;2022-10-17T02:28:40;15.30;1.00
4727;DHT22;2377;51.734;8.950;2022-10-17T02:31:15;15.30;1.00
4727;DHT22;2377;51.734;8.950;2022-10-17T02:33:50;15.30;1.00
4727;DHT22;2377;51.734;8.950;2022-10-17T02:36:26;15.30;3.50
4727;DHT22;2377;51.734;8.950;2022-10-17T02:38:59;15.30;1.00
4727;DHT22;2377;51.734;8.950;2022-10-17T02:41:29;15.30;1.00
4727;DHT22;2377;51.734;8.950;2022-10-17T02:43:58;15.30;1.00
4727;DHT22;2377;51.734;8.950;2022-10-17T02:46:28;15.30;1.00
4727;DHT22;2377;51.734;8.950;2022-10-17T02:49:01;15.30;1.00
4727;DHT22;2377;51.734;8.950;2022-10-17T02:51:40;15.30;1.00
4727;DHT22;2377;51.734;8.950;2022-10-17T02:54:16;15.30;1.00
4727;DHT22;2377;51.734;8.950;2022-10-17T02:56:50;15.30;1.00
4727;DHT22;2377;51.734;8.950;2022-10-17T02:59:24;15.40;1.00
4727;DHT22;2377;51.734;8.950;2022-10-17T03:01:54;15.40;1.00
4727;DHT22;2377;51.734;8.950;2022-10-17T03:04:22;15.30;1.00
4727;DHT22;2377;51.734;8.950;2022-10-17T03:06:50;15.30;1.00
4727;DHT22;2377;51.734;8.950;2022-10-17T03:09:17;15.30;1.00
4727;DHT22;2377;51.734;8.950;2022-10-17T03:11:44;15.30;1.00
4727;DHT22;2377;51.734;8.950;2022-10-17T03:14:11;15.40;1.00
4727;DHT22;2377;51.734;8.950;2022-10-17T03:16:38;15.50;1.00
4727;DHT22;2377;51.734;8.950;2022-10-17T03:19:18;15.40;1.00
4727;DHT22;2377;51.734;8.950;2022-10-17T03:21:47;15.40;1.00
4727;DHT22;2377;51.734;8.950;2022-10-17T03:24:14;15.50;1.00
4727;DHT22;2377;51.734;8.950;2022-10-17T03:26:41;15.40;1.00
4727;DHT22;2377;51.734;8.950;2022-10-17T03:29:08;15.40;1.00
4727;DHT22;2377;51.734;8.950;2022-10-17T03:31:35;15.40;1.00
4727;DHT22;2377;51.734;8.950;2022-10-17T03:34:02;15.40;1.00
4727;DHT22;2377;51.734;8.950;2022-10-17T03:36:29;15.40;1.00
4727;DHT22;2377;51.734;8.950;2022-10-17T03:38:58;15.40;1.00
4727;DHT22;2377;51.734;8.950;2022-10-17T03:41:25;15.30;1.00
4727;DHT22;2377;51.734;8.950;2022-10-17T03:43:52;15.30;1.00
4727;DHT22;2377;51.734;8.950;2022-10-17T03:46:19;15.30;1.00
4727;DHT22;2377;51.734;8.950;2022-10-17T03:48:46;15.30;1.00
4727;DHT22;2377;51.734;8.950;2022-10-17T03:51:13;15.40;1.00
4727;DHT22;2377;51.734;8.950;2022-10-17T03:53:41;15.40;1.00
4727;DHT22;2377;51.734;8.950;2022-10-17T03:56:11;15.40;1.00
4727;DHT22;2377;51.734;8.950;2022-10-17T03:58:41;15.40;1.00
4727;DHT22;2377;51.734;8.950;2022-10-17T04:01:10;15.50;1.00
4727;DHT22;2377;51.734;8.950;2022-10-17T04:03:38;15.50;1.00
4727;DHT22;2377;51.734;8.950;2022-10-17T04:06:06;15.40;1.00
4727;DHT22;2377;51.734;8.950;2022-10-17T04:08:34;15.40;1.00
4727;DHT22;2377;51.734;8.950;2022-10-17T04:11:03;15.40;1.00
4727;DHT22;2377;51.734;8.950;2022-10-17T04:13:33;15.40;1.00
4727;DHT22;2377;51.734;8.950;2022-10-17T04:16:03;15.40;1.50
4727;DHT22;2377;51.734;8.950;2022-10-17T04:18:32;15.40;1.00
4727;DHT22;2377;51.734;8.950;2022-10-17T04:21:00;15.30;1.00
4727;DHT22;2377;51.734;8.950;2022-10-17T04:23:28;15.30;1.00
4727;DHT22;2377;51.734;8.950;2022-10-17T04:25:55;15.30;1.00
4727;DHT22;2377;51.734;8.950;2022-10-17T04:28:23;15.30;1.00
4727;DHT22;2377;51.734;8.950;2022-10-17T04:30:56;15.30;1.00
4727;DHT22;2377;51.734;8.950;2022-10-17T04:33:23;15.30;1.00
4727;DHT22;2377;51.734;8.950;2022-10-17T04:35:57;15.30;1.00
4727;DHT22;2377;51.734;8.950;2022-10-17T04:38:25;15.20;1.00
4727;DHT22;2377;51.734;8.950;2022-10-17T04:40:53;15.30;1.00
4727;DHT22;2377;51.734;8.950;2022-10-17T04:43:22;15.20;1.00
4727;DHT22;2377;51.734;8.950;2022-10-17T04:45:49;15.20;1.00
4727;DHT22;2377;51.734;8.950;2022-10-17T04:48:18;15.10;1.00
4727;DHT22;2377;51.734;8.950;2022-10-17T04:50:52;15.10;1.00
4727;DHT22;2377;51.734;8.950;2022-10-17T04:53:20;15.10;1.00
4727;DHT22;2377;51.734;8.950;2022-10-17T04:55:47;15.10;1.00
4727;DHT22;2377;51.734;8.950;2022-10-17T04:58:14;15.10;1.00
4727;DHT22;2377;51.734;8.950;2022-10-17T05:00:42;15.10;1.00
4727;DHT22;2377;51.734;8.950;2022-10-17T05:03:09;15.00;1.00
4727;DHT22;2377;51.734;8.950;2022-10-17T05:05:39;15.00;1.00
4727;DHT22;2377;51.734;8.950;2022-10-17T05:08:08;14.90;1.00
4727;DHT22;2377;51.734;8.950;2022-10-17T05:10:37;14.80;1.00
4727;DHT22;2377;51.734;8.950;2022-10-17T05:13:05;14.80;1.00
4727;DHT22;2377;51.734;8.950;2022-10-17T05:15:33;14.80;1.00
4727;DHT22;2377;51.734;8.950;2022-10-17T05:18:00;14.80;1.00
4727;DHT22;2377;51.734;8.950;2022-10-17T05:20:28;14.80;1.00
4727;DHT22;2377;51.734;8.950;2022-10-17T05:22:59;14.70;1.00
4727;DHT22;2377;51.734;8.950;2022-10-17T05:25:26;14.60;1.00
4727;DHT22;2377;51.734;8.950;2022-10-17T05:27:53;14.70;1.00
4727;DHT22;2377;51.734;8.950;2022-10-17T05:30:20;14.60;1.00
4727;DHT22;2377;51.734;8.950;2022-10-17T05:32:51;14.60;1.00
4727;DHT22;2377;51.734;8.950;2022-10-17T05:35:19;14.60;1.00
4727;DHT22;2377;51.734;8.950;2022-10-17T05:37:47;14.60;1.00
4727;DHT22;2377;51.734;8.950;2022-10-17T05:40:16;14.60;1.00
4727;DHT22;2377;51.734;8.950;2022-10-17T05:42:45;14.60;1.00
4727;DHT22;2377;51.734;8.950;2022-10-17T05:45:13;14.60;1.00
4727;DHT22;2377;51.734;8.950;2022-10-17T05:47:40;14.60;1.00
4727;DHT22;2377;51.734;8.950;2022-10-17T05:50:08;14.60;3.70
4727;DHT22;2377;51.734;8.950;2022-10-17T05:52:35;14.70;1.00
4727;DHT22;2377;51.734;8.950;2022-10-17T05:55:03;14.80;1.00
4727;DHT22;2377;51.734;8.950;2022-10-17T05:57:32;14.80;6.90
4727;DHT22;2377;51.734;8.950;2022-10-17T05:59:59;14.90;11.60
4727;DHT22;2377;51.734;8.950;2022-10-17T06:02:27;15.00;5.80
4727;DHT22;2377;51.734;8.950;2022-10-17T06:04:54;15.00;4.40
4727;DHT22;2377;51.734;8.950;2022-10-17T06:07:21;15.10;4.50
4727;DHT22;2377;51.734;8.950;2022-10-17T06:09:48;15.10;5.80
4727;DHT22;2377;51.734;8.950;2022-10-17T06:12:15;15.10;5.20
4727;DHT22;2377;51.734;8.950;2022-10-17T06:14:43;15.10;7.80
4727;DHT22;2377;51.734;8.950;2022-10-17T06:17:10;15.10;3.60
4727;DHT22;2377;51.734;8.950;2022-10-17T06:19:37;15.10;8.20
4727;DHT22;2377;51.734;8.950;2022-10-17T06:22:05;15.10;7.20
4727;DHT22;2377;51.734;8.950;2022-10-17T06:24:33;15.10;14.10
4727;DHT22;2377;51.734;8.950;2022-10-17T06:27:00;15.20;7.40
4727;DHT22;2377;51.734;8.950;2022-10-17T06:29:27;15.20;5.40
4727;DHT22;2377;51.734;8.950;2022-10-17T06:31:55;15.30;3.20
4727;DHT22;2377;51.734;8.950;2022-10-17T06:34:22;15.30;3.10
4727;DHT22;2377;51.734;8.950;2022-10-17T06:36:49;15.30;4.50
4727;DHT22;2377;51.734;8.950;2022-10-17T06:39:16;15.30;3.90
4727;DHT22;2377;51.734;8.950;2022-10-17T06:41:43;15.30;3.90
4727;DHT22;2377;51.734;8.950;2022-10-17T06:44:11;15.40;1.00
4727;DHT22;2377;51.734;8.950;2022-10-17T06:46:38;15.40;8.20
4727;DHT22;2377;51.734;8.950;2022-10-17T06:49:09;15.40;5.80
4727;DHT22;2377;51.734;8.950;2022-10-17T06:51:37;15.40;1.00
4727;DHT22;2377;51.734;8.950;2022-10-17T06:54:04;15.50;3.00
4727;DHT22;2377;51.734;8.950;2022-10-17T06:56:31;15.50;1.00
4727;DHT22;2377;51.734;8.950;2022-10-17T06:58:58;15.60;1.00
4727;DHT22;2377;51.734;8.950;2022-10-17T07:01:25;15.60;1.00
4727;DHT22;2377;51.734;8.950;2022-10-17T07:03:53;15.60;1.00
4727;DHT22;2377;51.734;8.950;2022-10-17T07:06:21;15.70;1.00
4727;DHT22;2377;51.734;8.950;2022-10-17T07:08:49;15.80;1.00
4727;DHT22;2377;51.734;8.950;2022-10-17T07:11:18;15.80;1.00
4727;DHT22;2377;51.734;8.950;2022-10-17T07:13:46;15.90;1.00
4727;DHT22;2377;51.734;8.950;2022-10-17T07:16:15;16.00;1.00
4727;DHT22;2377;51.734;8.950;2022-10-17T07:18:42;16.00;1.00
4727;DHT22;2377;51.734;8.950;2022-10-17T07:21:11;16.10;1.00
4727;DHT22;2377;51.734;8.950;2022-10-17T07:23:39;16.10;1.00
4727;DHT22;2377;51.734;8.950;2022-10-17T07:26:10;16.10;1.00
4727;DHT22;2377;51.734;8.950;2022-10-17T07:28:39;16.10;1.00
4727;DHT22;2377;51.734;8.950;2022-10-17T07:31:11;16.20;1.00
4727;DHT22;2377;51.734;8.950;2022-10-17T07:33:40;16.30;1.00
4727;DHT22;2377;51.734;8.950;2022-10-17T07:36:08;16.30;1.00
4727;DHT22;2377;51.734;8.950;2022-10-17T07:38:36;16.30;1.00
4727;DHT22;2377;51.734;8.950;2022-10-17T07:41:06;16.40;1.00
4727;DHT22;2377;51.734;8.950;2022-10-17T07:43:34;16.40;1.00
4727;DHT22;2377;51.734;8.950;2022-10-17T07:46:02;16.50;1.00
4727;DHT22;2377;51.734;8.950;2022-10-17T07:48:31;16.50;1.00
4727;DHT22;2377;51.734;8.950;2022-10-17T07:51:01;16.50;1.00
4727;DHT22;2377;51.734;8.950;2022-10-17T07:53:29;16.50;1.00
4727;DHT22;2377;51.734;8.950;2022-10-17T07:55:57;16.60;1.00
4727;DHT22;2377;51.734;8.950;2022-10-17T07:58:25;16.60;1.00
4727;DHT22;2377;51.734;8.950;2022-10-17T08:00:53;16.70;1.00
4727;DHT22;2377;51.734;8.950;2022-10-17T08:03:20;16.70;1.00
4727;DHT22;2377;51.734;8.950;2022-10-17T08:05:47;16.80;1.00
4727;DHT22;2377;51.734;8.950;2022-10-17T08:08:14;16.90;1.00
4727;DHT22;2377;51.734;8.950;2022-10-17T08:10:42;17.00;1.00
4727;DHT22;2377;51.734;8.950;2022-10-17T08:13:09;17.10;1.00
4727;DHT22;2377;51.734;8.950;2022-10-17T08:15:37;17.10;1.00
4727;DHT22;2377;51.734;8.950;2022-10-17T08:18:04;17.30;1.00
4727;DHT22;2377;51.734;8.950;2022-10-17T08:20:32;17.30;1.00
4727;DHT22;2377;51.734;8.950;2022-10-17T08:22:59;17.40;1.00
4727;DHT22;2377;51.734;8.950;2022-10-17T08:25:26;17.50;1.00
4727;DHT22;2377;51.734;8.950;2022-10-17T08:27:53;17.50;1.00
4727;DHT22;2377;51.734;8.950;2022-10-17T08:30:20;17.60;1.00
4727;DHT22;2377;51.734;8.950;2022-10-17T08:32:49;17.60;1.00
4727;DHT22;2377;51.734;8.950;2022-10-17T08:35:16;17.80;1.00
4727;DHT22;2377;51.734;8.950;2022-10-17T08:37:43;18.00;1.00
4727;DHT22;2377;51.734;8.950;2022-10-17T08:40:16;18.10;1.00
4727;DHT22;2377;51.734;8.950;2022-10-17T08:43:01;18.10;1.00
4727;DHT22;2377;51.734;8.950;2022-10-17T08:45:44;18.20;1.00
4727;DHT22;2377;51.734;8.950;2022-10-17T08:48:19;18.40;1.00
4727;DHT22;2377;51.734;8.950;2022-10-17T08:50:51;18.60;1.00
4727;DHT22;2377;51.734;8.950;2022-10-17T08:53:24;18.60;1.00
4727;DHT22;2377;51.734;8.950;2022-10-17T08:55:57;18.80;1.00
4727;DHT22;2377;51.734;8.950;2022-10-17T08:58:33;18.90;1.00
4727;DHT22;2377;51.734;8.950;2022-10-17T09:01:05;19.10;1.00
4727;DHT22;2377;51.734;8.950;2022-10-17T09:04:01;19.20;1.00
4727;DHT22;2377;51.734;8.950;2022-10-17T09:07:00;19.30;1.00
4727;DHT22;2377;51.734;8.950;2022-10-17T09:09:46;19.40;1.00
4727;DHT22;2377;51.734;8.950;2022-10-17T09:12:31;19.50;99.90
4727;DHT22;2377;51.734;8.950;2022-10-17T09:15:30;19.50;99.90
4727;DHT22;2377;51.734;8.950;2022-10-17T09:18:09;19.30;99.90
4727;DHT22;2377;51.734;8.950;2022-10-17T09:20:45;19.20;99.90
4727;DHT22;2377;51.734;8.950;2022-10-17T09:23:17;19.10;99.90
4727;DHT22;2377;51.734;8.950;2022-10-17T09:25:51;19.10;1.00
4727;DHT22;2377;51.734;8.950;2022-10-17T09:28:22;19.10;1.00
4727;DHT22;2377;51.734;8.950;2022-10-17T09:30:55;19.30;99.90
4727;DHT22;2377;51.734;8.950;2022-10-17T09:33:28;19.60;99.90
4727;DHT22;2377;51.734;8.950;2022-10-17T09:36:02;20.00;99.90
4727;DHT22;2377;51.734;8.950;2022-10-17T09:38:37;20.10;99.90
4727;DHT22;2377;51.734;8.950;2022-10-17T09:41:18;20.40;99.90
4727;DHT22;2377;51.734;8.950;2022-10-17T09:43:47;20.60;99.90
4727;DHT22;2377;51.734;8.950;2022-10-17T09:46:22;20.70;99.90
4727;DHT22;2377;51.734;8.950;2022-10-17T09:48:56;20.80;99.90
4727;DHT22;2377;51.734;8.950;2022-10-17T09:51:29;20.80;99.90
4727;DHT22;2377;51.734;8.950;2022-10-17T09:54:02;20.80;99.90
4727;DHT22;2377;51.734;8.950;2022-10-17T09:56:55;21.00;99.90
4727;DHT22;2377;51.734;8.950;2022-10-17T09:59:30;21.20;99.90
4727;DHT22;2377;51.734;8.950;2022-10-17T10:02:07;21.10;99.90
4727;DHT22;2377;51.734;8.950;2022-10-17T10:04:52;21.30;99.90
4727;DHT22;2377;51.734;8.950;2022-10-17T10:07:23;21.50;99.90
4727;DHT22;2377;51.734;8.950;2022-10-17T10:09:53;21.70;99.90
4727;DHT22;2377;51.734;8.950;2022-10-17T10:12:23;21.70;99.90
4727;DHT22;2377;51.734;8.950;2022-10-17T10:14:52;21.50;99.90
4727;DHT22;2377;51.734;8.950;2022-10-17T10:17:28;21.40;99.90
4727;DHT22;2377;51.734;8.950;2022-10-17T10:20:01;21.50;99.90
4727;DHT22;2377;51.734;8.950;2022-10-17T10:23:08;21.50;99.90
4727;DHT22;2377;51.734;8.950;2022-10-17T10:25:48;21.40;99.90
4727;DHT22;2377;51.734;8.950;2022-10-17T10:28:21;21.30;99.90
4727;DHT22;2377;51.734;8.950;2022-10-17T10:30:53;21.30;99.90
4727;DHT22;2377;51.734;8.950;2022-10-17T10:33:25;21.30;99.90
4727;DHT22;2377;51.734;8.950;2022-10-17T10:35:56;21.40;99.90
4727;DHT22;2377;51.734;8.950;2022-10-17T10:38:28;21.50;99.90
4727;DHT22;2377;51.734;8.950;2022-10-17T10:41:02;21.40;99.90
4727;DHT22;2377;51.734;8.950;2022-10-17T10:43:34;21.50;99.90
4727;DHT22;2377;51.734;8.950;2022-10-17T10:46:05;21.60;99.90
4727;DHT22;2377;51.734;8.950;2022-10-17T10:48:50;21.60;99.90
4727;DHT22;2377;51.734;8.950;2022-10-17T10:51:22;21.60;99.90
4727;DHT22;2377;51.734;8.950;2022-10-17T10:54:00;21.70;99.90
4727;DHT22;2377;51.734;8.950;2022-10-17T10:56:36;21.80;99.90
4727;DHT22;2377;51.734;8.950;2022-10-17T10:59:11;21.80;99.90
4727;DHT22;2377;51.734;8.950;2022-10-17T11:01:47;21.90;99.90
4727;DHT22;2377;51.734;8.950;2022-10-17T11:04:26;22.00;99.90
4727;DHT22;2377;51.734;8.950;2022-10-17T11:07:00;22.10;99.90
4727;DHT22;2377;51.734;8.950;2022-10-17T11:09:44;22.10;99.90
4727;DHT22;2377;51.734;8.950;2022-10-17T11:12:19;22.10;99.90
4727;DHT22;2377;51.734;8.950;2022-10-17T11:14:54;22.10;99.90
4727;DHT22;2377;51.734;8.950;2022-10-17T11:17:31;22.20;99.90
4727;DHT22;2377;51.734;8.950;2022-10-17T11:20:10;22.30;99.90
4727;DHT22;2377;51.734;8.950;2022-10-17T11:22:46;22.30;99.90
4727;DHT22;2377;51.734;8.950;2022-10-17T11:25:23;22.30;99.90
4727;DHT22;2377;51.734;8.950;2022-10-17T11:27:56;22.30;99.90
4727;DHT22;2377;51.734;8.950;2022-10-17T11:30:27;22.40;99.90
4727;DHT22;2377;51.734;8.950;2022-10-17T11:33:17;22.50;99.90
4727;DHT22;2377;51.734;8.950;2022-10-17T11:35:52;22.60;99.90
4727;DHT22;2377;51.734;8.950;2022-10-17T11:38:28;22.70;57.70
4727;DHT22;2377;51.734;8.950;2022-10-17T11:41:12;22.80;67.10
4727;DHT22;2377;51.734;8.950;2022-10-17T11:43:49;22.80;49.60
4727;DHT22;2377;51.734;8.950;2022-10-17T11:46:21;22.90;35.60
4727;DHT22;2377;51.734;8.950;2022-10-17T11:48:59;23.00;24.20
4727;DHT22;2377;51.734;8.950;2022-10-17T11:51:37;22.80;26.70
4727;DHT22;2377;51.734;8.950;2022-10-17T11:54:14;22.80;19.30
4727;DHT22;2377;51.734;8.950;2022-10-17T11:56:50;22.80;25.80
4727;DHT22;2377;51.734;8.950;2022-10-17T11:59:44;22.80;31.50
4727;DHT22;2377;51.734;8.950;2022-10-17T12:02:34;22.80;25.80
4727;DHT22;2377;51.734;8.950;2022-10-17T12:05:17;22.70;57.10
4727;DHT22;2377;51.734;8.950;2022-10-17T12:07:56;22.50;67.40
4727;DHT22;2377;51.734;8.950;2022-10-17T12:10:36;22.40;75.20
4727;DHT22;2377;51.734;8.950;2022-10-17T12:13:53;22.30;69.90
4727;DHT22;2377;51.734;8.950;2022-10-17T12:16:38;22.30;83.70
4727;DHT22;2377;51.734;8.950;2022-10-17T12:19:29;22.30;99.90
4727;DHT22;2377;51.734;8.950;2022-10-17T12:22:03;22.20;99.90
4727;DHT22;2377;51.734;8.950;2022-10-17T12:24:54;22.10;99.90
4727;DHT22;2377;51.734;8.950;2022-10-17T12:27:36;22.10;99.90
4727;DHT22;2377;51.734;8.950;2022-10-17T12:30:20;22.00;88.10
4727;DHT22;2377;51.734;8.950;2022-10-17T12:33:03;22.00;99.90
4727;DHT22;2377;51.734;8.950;2022-10-17T12:35:42;22.00;99.90
4727;DHT22;2377;51.734;8.950;2022-10-17T12:38:20;21.90;99.90
4727;DHT22;2377;51.734;8.950;2022-10-17T12:40:55;21.80;99.90
4727;DHT22;2377;51.734;8.950;2022-10-17T12:43:42;21.90;55.40
4727;DHT22;2377;51.734;8.950;2022-10-17T12:52:18;21.80;85.70
4727;DHT22;2377;51.734;8.950;2022-10-17T12:55:09;21.70;95.50
4727;DHT22;2377;51.734;8.950;2022-10-17T12:57:48;21.80;72.00
4727;DHT22;2377;51.734;8.950;2022-10-17T13:00:22;21.80;85.50
4727;DHT22;2377;51.734;8.950;2022-10-17T13:03:00;21.70;85.40
4727;DHT22;2377;51.734;8.950;2022-10-17T13:05:33;21.70;83.30
4727;DHT22;2377;51.734;8.950;2022-10-17T13:08:05;21.70;89.20
4727;DHT22;2377;51.734;8.950;2022-10-17T13:10:37;21.70;99.90
4727;DHT22;2377;51.734;8.950;2022-10-17T13:13:20;21.60;98.00
4727;DHT22;2377;51.734;8.950;2022-10-17T13:15:51;21.60;99.00
4727;DHT22;2377;51.734;8.950;2022-10-17T13:18:23;21.60;99.90
4727;DHT22;2377;51.734;8.950;2022-10-17T13:20:59;21.60;99.90
4727;DHT22;2377;51.734;8.950;2022-10-17T13:23:30;21.60;99.90
4727;DHT22;2377;51.734;8.950;2022-10-17T13:26:14;21.60;99.90
4727;DHT22;2377;51.734;8.950;2022-10-17T13:28:45;21.60;99.90
4727;DHT22;2377;51.734;8.950;2022-10-17T13:31:30;21.60;99.90
4727;DHT22;2377;51.734;8.950;2022-10-17T13:34:01;21.60;99.90
4727;DHT22;2377;51.734;8.950;2022-10-17T13:36:30;21.50;99.90
4727;DHT22;2377;51.734;8.950;2022-10-17T13:39:05;21.50;99.90
4727;DHT22;2377;51.734;8.950;2022-10-17T13:41:34;21.50;99.90
4727;DHT22;2377;51.734;8.950;2022-10-17T13:44:09;21.60;99.90
4727;DHT22;2377;51.734;8.950;2022-10-17T13:46:39;21.60;99.90
4727;DHT22;2377;51.734;8.950;2022-10-17T13:49:14;21.50;99.90
4727;DHT22;2377;51.734;8.950;2022-10-17T13:51:46;21.50;99.90
4727;DHT22;2377;51.734;8.950;2022-10-17T13:54:31;21.50;99.90
4727;DHT22;2377;51.734;8.950;2022-10-17T13:57:03;21.50;99.90
4727;DHT22;2377;51.734;8.950;2022-10-17T13:59:36;21.50;99.90
4727;DHT22;2377;51.734;8.950;2022-10-17T14:02:05;21.40;99.90
4727;DHT22;2377;51.734;8.950;2022-10-17T14:04:40;21.40;99.90
4727;DHT22;2377;51.734;8.950;2022-10-17T14:07:20;21.40;99.90
4727;DHT22;2377;51.734;8.950;2022-10-17T14:09:53;21.30;99.90
4727;DHT22;2377;51.734;8.950;2022-10-17T14:12:20;21.30;99.90
4727;DHT22;2377;51.734;8.950;2022-10-17T14:14:51;21.30;99.90
4727;DHT22;2377;51.734;8.950;2022-10-17T14:17:22;21.30;99.90
4727;DHT22;2377;51.734;8.950;2022-10-17T14:19:55;21.30;99.90
4727;DHT22;2377;51.734;8.950;2022-10-17T14:22:28;21.30;99.90
4727;DHT22;2377;51.734;8.950;2022-10-17T14:24:59;21.40;99.90
4727;DHT22;2377;51.734;8.950;2022-10-17T14:27:29;21.40;99.90
4727;DHT22;2377;51.734;8.950;2022-10-17T14:30:01;21.50;99.90
4727;DHT22;2377;51.734;8.950;2022-10-17T14:32:34;21.50;99.90
4727;DHT22;2377;51.734;8.950;2022-10-17T14:35:05;21.50;99.90
4727;DHT22;2377;51.734;8.950;2022-10-17T14:37:41;21.50;99.90
4727;DHT22;2377;51.734;8.950;2022-10-17T14:40:14;21.50;99.90
4727;DHT22;2377;51.734;8.950;2022-10-17T14:42:44;21.50;99.90
4727;DHT22;2377;51.734;8.950;2022-10-17T14:45:14;21.50;99.90
4727;DHT22;2377;51.734;8.950;2022-10-17T14:47:48;21.50;99.90
4727;DHT22;2377;51.734;8.950;2022-10-17T14:50:24;21.50;99.90
4727;DHT22;2377;51.734;8.950;2022-10-17T14:53:02;21.50;99.90
4727;DHT22;2377;51.734;8.950;2022-10-17T14:55:32;21.50;99.90
4727;DHT22;2377;51.734;8.950;2022-10-17T14:58:01;21.50;99.90
4727;DHT22;2377;51.734;8.950;2022-10-17T15:00:41;21.50;99.90
4727;DHT22;2377;51.734;8.950;2022-10-17T15:03:08;21.40;99.90
4727;DHT22;2377;51.734;8.950;2022-10-17T15:05:37;21.30;99.90
4727;DHT22;2377;51.734;8.950;2022-10-17T15:08:05;21.30;99.90
4727;DHT22;2377;51.734;8.950;2022-10-17T15:10:36;21.20;99.90
4727;DHT22;2377;51.734;8.950;2022-10-17T15:13:06;21.10;99.90
4727;DHT22;2377;51.734;8.950;2022-10-17T15:15:35;21.10;99.90
4727;DHT22;2377;51.734;8.950;2022-10-17T15:18:04;21.10;99.90
4727;DHT22;2377;51.734;8.950;2022-10-17T15:20:33;21.10;99.90
4727;DHT22;2377;51.734;8.950;2022-10-17T15:23:02;21.10;99.90
4727;DHT22;2377;51.734;8.950;2022-10-17T15:25:31;21.10;99.90
4727;DHT22;2377;51.734;8.950;2022-10-17T15:28:00;21.00;99.90
4727;DHT22;2377;51.734;8.950;2022-10-17T15:30:30;21.00;99.90
4727;DHT22;2377;51.734;8.950;2022-10-17T15:33:00;21.00;99.90
4727;DHT22;2377;51.734;8.950;2022-10-17T15:35:28;21.00;99.90
4727;DHT22;2377;51.734;8.950;2022-10-17T15:37:56;21.00;99.90
4727;DHT22;2377;51.734;8.950;2022-10-17T15:40:27;21.00;99.90
4727;DHT22;2377;51.734;8.950;2022-10-17T15:42:56;21.00;99.90
4727;DHT22;2377;51.734;8.950;2022-10-17T15:45:24;21.00;99.90
4727;DHT22;2377;51.734;8.950;2022-10-17T15:47:53;20.90;99.90
4727;DHT22;2377;51.734;8.950;2022-10-17T15:50:23;20.90;99.90
4727;DHT22;2377;51.734;8.950;2022-10-17T15:52:53;20.90;99.90
4727;DHT22;2377;51.734;8.950;2022-10-17T15:55:21;20.90;99.90
4727;DHT22;2377;51.734;8.950;2022-10-17T15:57:50;20.80;99.90
4727;DHT22;2377;51.734;8.950;2022-10-17T16:00:20;20.80;99.90
4727;DHT22;2377;51.734;8.950;2022-10-17T16:02:52;20.70;99.90
4727;DHT22;2377;51.734;8.950;2022-10-17T16:05:21;20.60;99.90
4727;DHT22;2377;51.734;8.950;2022-10-17T16:07:50;20.60;99.90
4727;DHT22;2377;51.734;8.950;2022-10-17T16:10:19;20.60;99.90
4727;DHT22;2377;51.734;8.950;2022-10-17T16:12:47;20.60;99.90
4727;DHT22;2377;51.734;8.950;2022-10-17T16:15:19;20.60;99.90
4727;DHT22;2377;51.734;8.950;2022-10-17T16:17:48;20.50;99.90
4727;DHT22;2377;51.734;8.950;2022-10-17T16:20:15;20.50;99.10
4727;DHT22;2377;51.734;8.950;2022-10-17T16:22:44;20.50;99.90
4727;DHT22;2377;51.734;8.950;2022-10-17T16:25:17;20.50;99.90
4727;DHT22;2377;51.734;8.950;2022-10-17T16:27:47;20.50;93.40
4727;DHT22;2377;51.734;8.950;2022-10-17T16:30:20;20.50;64.20
4727;DHT22;2377;51.734;8.950;2022-10-17T16:32:49;20.40;99.90
4727;DHT22;2377;51.734;8.950;2022-10-17T16:35:19;20.40;21.90
4727;DHT22;2377;51.734;8.950;2022-10-17T16:37:48;20.30;32.10
4727;DHT22;2377;51.734;8.950;2022-10-17T16:40:15;20.30;1.00
4727;DHT22;2377;51.734;8.950;2022-10-17T16:42:43;20.30;1.00
4727;DHT22;2377;51.734;8.950;2022-10-17T16:45:15;20.30;19.10
4727;DHT22;2377;51.734;8.950;2022-10-17T16:47:44;20.20;21.20
4727;DHT22;2377;51.734;8.950;2022-10-17T16:50:13;20.10;23.70